Etusivu
METAR-TAF:

METAR-TAF

Lentoasemat :

Hanford, Kalifornia, Yhdysvallat

Leveyspiiri: 36-19-07N, Pituuspiiri: 119-37-44W, korkeus merenpinnasta: 74 m

Tämänhetkinen sää

Tämä raportti tehtiin 8 minuuttia sitten, kello 16.14 UTC
Tuuli 8 kn etelästä/kaakosta
Lämpötila 16°C
Kosteus 82%
Ilmanpaine 1011 hPa
Näkyvyys: 12.9 km
Hajonneita pilviä 1300 ft:n korkeudessa
Hajonneita pilviä 8500 ft:n korkeudessa

METAR: KHJO 191614Z AUTO 16008KT 8SM BKN013 BKN085 16/13 A2984 RMK AO2 T01560128

Aika: 09:22 (16:22 UTC)


TAF: puuttuu

Säähavainnot ja -ennusteet yli 4000 lentoasemalta (METAR- ja TAF-raportit).

Käytössä olevat sääasemat on merkitty karttaan keltaisilla ja punaisilla pisteillä.

Aseta hiiri pisteen päälle nähdäksesi sääaseman nimen.

Klikkaa sitten nähdäksesi säähavainnot ja -ennusteet.

Kartan vaihtaminen: klikkaa mustalla rastilla varustettuja vihreitä pisteitä, niin voit zoomata sisään; viivalla varustettua vihreää pistettä, niin voit zoomata ulos tai vihreitä nuolia, niin pääset viereisille kartoille.


METAR-TAF: